Terminal Aerodrome Forecast
Issued by NWS

Home | Current Version | Previous Version | Graphics & Text | Print | Product List | Glossary On
Versions: 1 2 3 4 5 6 7 8 9 10 11 12 13 14 15 16 17 18 19 20 21 22 23 24 25 26
246
FTUS43 KLOT 202059 AAB
TAFORD
TAF AMD
KORD 202059Z 2021/2124 06015G22KT P6SM VCSH SCT050 BKN100
     FM202230 07012KT 6SM -SHRA VCTS SCT050CB BKN080
     FM202300 10009KT P6SM SCT080 BKN250
     FM210200 07007KT P6SM SCT250
     FM210500 36004KT P6SM SCT250
     FM211500 06005KT P6SM BKN250
     FM212100 07008KT P6SM SCT100 BKN200=

USA.gov is the U.S. government's official web portal to all federal, state and local government web resources and services.